sensor_id;sensor_type;location;lat;lon;timestamp;temperature;humidity
34434;DHT22;34290;48.562;13.384;2023-03-16T00:02:46;-2.10;99.90
34434;DHT22;34290;48.562;13.384;2023-03-16T00:07:41;-1.50;99.90
34434;DHT22;34290;48.562;13.384;2023-03-16T00:10:09;-2.20;99.90
34434;DHT22;34290;48.562;13.384;2023-03-16T00:12:37;-2.20;99.90
34434;DHT22;34290;48.562;13.384;2023-03-16T00:15:05;-2.00;99.90
34434;DHT22;34290;48.562;13.384;2023-03-16T00:17:34;-2.40;99.90
34434;DHT22;34290;48.562;13.384;2023-03-16T00:22:31;-2.50;99.90
34434;DHT22;34290;48.562;13.384;2023-03-16T00:27:26;-2.50;99.90
34434;DHT22;34290;48.562;13.384;2023-03-16T00:29:53;-2.50;99.90
34434;DHT22;34290;48.562;13.384;2023-03-16T00:32:22;-2.40;99.90
34434;DHT22;34290;48.562;13.384;2023-03-16T00:34:51;-2.40;99.90
34434;DHT22;34290;48.562;13.384;2023-03-16T00:37:19;-2.50;99.90
34434;DHT22;34290;48.562;13.384;2023-03-16T00:39:48;-2.40;99.90
34434;DHT22;34290;48.562;13.384;2023-03-16T00:42:18;-2.50;99.90
34434;DHT22;34290;48.562;13.384;2023-03-16T00:47:13;-2.70;99.90
34434;DHT22;34290;48.562;13.384;2023-03-16T00:49:41;-2.60;99.90
34434;DHT22;34290;48.562;13.384;2023-03-16T00:52:11;-2.60;99.90
34434;DHT22;34290;48.562;13.384;2023-03-16T00:54:40;-2.60;99.90
34434;DHT22;34290;48.562;13.384;2023-03-16T00:57:09;-2.60;99.90
34434;DHT22;34290;48.562;13.384;2023-03-16T00:59:37;-2.50;99.90
34434;DHT22;34290;48.562;13.384;2023-03-16T01:02:05;-2.60;99.90
34434;DHT22;34290;48.562;13.384;2023-03-16T01:04:32;-2.80;99.90
34434;DHT22;34290;48.562;13.384;2023-03-16T01:07:00;-2.70;99.90
34434;DHT22;34290;48.562;13.384;2023-03-16T01:14:31;-2.60;99.90
34434;DHT22;34290;48.562;13.384;2023-03-16T01:16:59;-2.70;99.90
34434;DHT22;34290;48.562;13.384;2023-03-16T01:21:53;-3.00;99.90
34434;DHT22;34290;48.562;13.384;2023-03-16T01:24:20;-2.80;99.90
34434;DHT22;34290;48.562;13.384;2023-03-16T01:26:50;-2.80;99.90
34434;DHT22;34290;48.562;13.384;2023-03-16T01:29:17;-2.90;99.90
34434;DHT22;34290;48.562;13.384;2023-03-16T01:34:11;-3.10;99.90
34434;DHT22;34290;48.562;13.384;2023-03-16T01:36:41;-3.20;99.90
34434;DHT22;34290;48.562;13.384;2023-03-16T01:41:36;-3.20;99.90
34434;DHT22;34290;48.562;13.384;2023-03-16T01:44:04;-3.20;99.90
34434;DHT22;34290;48.562;13.384;2023-03-16T01:46:31;-3.20;99.90
34434;DHT22;34290;48.562;13.384;2023-03-16T01:49:05;-3.10;99.90
34434;DHT22;34290;48.562;13.384;2023-03-16T01:51:37;-3.20;99.90
34434;DHT22;34290;48.562;13.384;2023-03-16T01:54:13;-3.20;99.90
34434;DHT22;34290;48.562;13.384;2023-03-16T01:56:44;-3.30;99.90
34434;DHT22;34290;48.562;13.384;2023-03-16T01:59:18;-3.30;99.90
34434;DHT22;34290;48.562;13.384;2023-03-16T02:01:48;-3.40;99.90
34434;DHT22;34290;48.562;13.384;2023-03-16T02:04:28;-3.30;99.90
34434;DHT22;34290;48.562;13.384;2023-03-16T02:06:59;-3.40;99.90
34434;DHT22;34290;48.562;13.384;2023-03-16T02:09:27;-3.40;99.90
34434;DHT22;34290;48.562;13.384;2023-03-16T02:11:55;-3.40;99.90
34434;DHT22;34290;48.562;13.384;2023-03-16T02:14:24;-3.40;99.90
34434;DHT22;34290;48.562;13.384;2023-03-16T02:16:51;-3.50;99.90
34434;DHT22;34290;48.562;13.384;2023-03-16T02:19:24;-3.50;99.90
34434;DHT22;34290;48.562;13.384;2023-03-16T02:21:57;-3.40;99.90
34434;DHT22;34290;48.562;13.384;2023-03-16T02:24:27;-3.50;99.90
34434;DHT22;34290;48.562;13.384;2023-03-16T02:26:56;-3.40;99.90
34434;DHT22;34290;48.562;13.384;2023-03-16T02:29:43;-3.40;99.90
34434;DHT22;34290;48.562;13.384;2023-03-16T02:32:12;-3.50;99.90
34434;DHT22;34290;48.562;13.384;2023-03-16T02:34:40;-3.40;99.90
34434;DHT22;34290;48.562;13.384;2023-03-16T02:37:08;-3.50;99.90
34434;DHT22;34290;48.562;13.384;2023-03-16T02:42:04;-3.70;99.90
34434;DHT22;34290;48.562;13.384;2023-03-16T02:44:34;-3.70;99.90
34434;DHT22;34290;48.562;13.384;2023-03-16T02:47:07;-3.20;99.90
34434;DHT22;34290;48.562;13.384;2023-03-16T02:49:39;-3.70;99.90
34434;DHT22;34290;48.562;13.384;2023-03-16T02:52:07;-3.80;99.90
34434;DHT22;34290;48.562;13.384;2023-03-16T02:54:35;-3.80;99.90
34434;DHT22;34290;48.562;13.384;2023-03-16T02:59:29;-3.60;99.90
34434;DHT22;34290;48.562;13.384;2023-03-16T03:01:57;-3.60;99.90
34434;DHT22;34290;48.562;13.384;2023-03-16T03:04:25;-3.40;99.90
34434;DHT22;34290;48.562;13.384;2023-03-16T03:06:52;-3.30;99.90
34434;DHT22;34290;48.562;13.384;2023-03-16T03:11:46;-3.20;99.90
34434;DHT22;34290;48.562;13.384;2023-03-16T03:19:11;-3.00;99.90
34434;DHT22;34290;48.562;13.384;2023-03-16T03:21:39;-3.00;99.90
34434;DHT22;34290;48.562;13.384;2023-03-16T03:24:07;-3.20;99.90
34434;DHT22;34290;48.562;13.384;2023-03-16T03:29:02;-3.40;99.90
34434;DHT22;34290;48.562;13.384;2023-03-16T03:31:29;-3.10;99.90
34434;DHT22;34290;48.562;13.384;2023-03-16T03:33:56;-3.10;99.90
34434;DHT22;34290;48.562;13.384;2023-03-16T03:36:24;-3.00;99.90
34434;DHT22;34290;48.562;13.384;2023-03-16T03:38:52;-3.10;99.90
34434;DHT22;34290;48.562;13.384;2023-03-16T03:41:20;-3.20;99.90
34434;DHT22;34290;48.562;13.384;2023-03-16T03:43:47;-3.00;99.90
34434;DHT22;34290;48.562;13.384;2023-03-16T03:48:41;-3.20;99.90
34434;DHT22;34290;48.562;13.384;2023-03-16T03:53:35;-3.10;99.90
34434;DHT22;34290;48.562;13.384;2023-03-16T03:56:05;-3.00;99.90
34434;DHT22;34290;48.562;13.384;2023-03-16T03:58:32;-2.90;99.90
34434;DHT22;34290;48.562;13.384;2023-03-16T04:03:26;-2.90;99.90
34434;DHT22;34290;48.562;13.384;2023-03-16T04:08:20;-2.90;99.90
34434;DHT22;34290;48.562;13.384;2023-03-16T04:13:15;-2.90;99.90
34434;DHT22;34290;48.562;13.384;2023-03-16T04:15:42;-2.90;99.90
34434;DHT22;34290;48.562;13.384;2023-03-16T04:18:11;-3.00;99.90
34434;DHT22;34290;48.562;13.384;2023-03-16T04:20:38;-3.10;99.90
34434;DHT22;34290;48.562;13.384;2023-03-16T04:23:05;-3.20;99.90
34434;DHT22;34290;48.562;13.384;2023-03-16T04:25:32;-3.20;99.90
34434;DHT22;34290;48.562;13.384;2023-03-16T04:28:02;-3.20;99.90
34434;DHT22;34290;48.562;13.384;2023-03-16T04:30:31;-3.20;99.90
34434;DHT22;34290;48.562;13.384;2023-03-16T04:32:59;-3.10;99.90
34434;DHT22;34290;48.562;13.384;2023-03-16T04:37:54;-3.30;99.90
34434;DHT22;34290;48.562;13.384;2023-03-16T04:40:21;-3.00;99.90
34434;DHT22;34290;48.562;13.384;2023-03-16T04:42:48;-3.00;99.90
34434;DHT22;34290;48.562;13.384;2023-03-16T04:45:16;-2.80;99.90
34434;DHT22;34290;48.562;13.384;2023-03-16T04:47:44;-2.70;99.90
34434;DHT22;34290;48.562;13.384;2023-03-16T04:50:12;-2.70;99.90
34434;DHT22;34290;48.562;13.384;2023-03-16T04:52:39;-2.60;99.90
34434;DHT22;34290;48.562;13.384;2023-03-16T04:55:07;-2.60;99.90
34434;DHT22;34290;48.562;13.384;2023-03-16T04:57:34;-2.60;99.90
34434;DHT22;34290;48.562;13.384;2023-03-16T05:02:34;-2.60;99.90
34434;DHT22;34290;48.562;13.384;2023-03-16T05:05:03;-2.60;99.90
34434;DHT22;34290;48.562;13.384;2023-03-16T05:09:58;-2.50;99.90
34434;DHT22;34290;48.562;13.384;2023-03-16T05:14:52;-2.40;99.90
34434;DHT22;34290;48.562;13.384;2023-03-16T05:17:19;-2.30;99.90
34434;DHT22;34290;48.562;13.384;2023-03-16T05:19:46;-2.20;99.90
34434;DHT22;34290;48.562;13.384;2023-03-16T05:22:15;-2.30;99.90
34434;DHT22;34290;48.562;13.384;2023-03-16T05:32:10;-2.20;99.90
34434;DHT22;34290;48.562;13.384;2023-03-16T05:34:37;-2.30;99.90
34434;DHT22;34290;48.562;13.384;2023-03-16T05:37:08;-2.20;99.90
34434;DHT22;34290;48.562;13.384;2023-03-16T05:39:36;-2.20;99.90
34434;DHT22;34290;48.562;13.384;2023-03-16T05:42:03;-2.20;99.90
34434;DHT22;34290;48.562;13.384;2023-03-16T05:44:30;-2.20;99.90
34434;DHT22;34290;48.562;13.384;2023-03-16T05:46:58;-2.30;99.90
34434;DHT22;34290;48.562;13.384;2023-03-16T05:49:25;-2.30;99.90
34434;DHT22;34290;48.562;13.384;2023-03-16T05:56:48;-2.30;99.90
34434;DHT22;34290;48.562;13.384;2023-03-16T05:59:15;-2.30;99.90
34434;DHT22;34290;48.562;13.384;2023-03-16T06:01:43;-2.30;99.90
34434;DHT22;34290;48.562;13.384;2023-03-16T06:04:11;-2.30;99.90
34434;DHT22;34290;48.562;13.384;2023-03-16T06:06:38;-2.20;99.90
34434;DHT22;34290;48.562;13.384;2023-03-16T06:11:33;-2.00;99.90
34434;DHT22;34290;48.562;13.384;2023-03-16T06:14:02;-1.50;99.90
34434;DHT22;34290;48.562;13.384;2023-03-16T06:16:29;-2.10;99.90
34434;DHT22;34290;48.562;13.384;2023-03-16T06:18:56;-2.40;99.90
34434;DHT22;34290;48.562;13.384;2023-03-16T06:23:50;-2.00;99.90
34434;DHT22;34290;48.562;13.384;2023-03-16T06:26:18;-2.00;99.90
34434;DHT22;34290;48.562;13.384;2023-03-16T06:28:45;-1.80;99.90
34434;DHT22;34290;48.562;13.384;2023-03-16T06:31:13;-1.80;99.90
34434;DHT22;34290;48.562;13.384;2023-03-16T06:33:40;-1.60;99.90
34434;DHT22;34290;48.562;13.384;2023-03-16T06:36:07;-1.50;99.90
34434;DHT22;34290;48.562;13.384;2023-03-16T06:38:34;-1.90;99.90
34434;DHT22;34290;48.562;13.384;2023-03-16T06:41:01;-1.90;99.90
34434;DHT22;34290;48.562;13.384;2023-03-16T06:45:55;-1.90;99.90
34434;DHT22;34290;48.562;13.384;2023-03-16T06:48:24;-2.00;99.90
34434;DHT22;34290;48.562;13.384;2023-03-16T06:50:51;-1.70;99.90
34434;DHT22;34290;48.562;13.384;2023-03-16T06:58:13;-1.50;99.90
34434;DHT22;34290;48.562;13.384;2023-03-16T07:03:08;-1.80;99.90
34434;DHT22;34290;48.562;13.384;2023-03-16T07:05:36;-1.80;99.90
34434;DHT22;34290;48.562;13.384;2023-03-16T07:10:31;-1.90;99.90
34434;DHT22;34290;48.562;13.384;2023-03-16T07:12:58;-1.70;99.90
34434;DHT22;34290;48.562;13.384;2023-03-16T07:15:26;-1.70;99.90
34434;DHT22;34290;48.562;13.384;2023-03-16T07:17:53;-1.70;99.90
34434;DHT22;34290;48.562;13.384;2023-03-16T07:20:20;-1.20;99.90
34434;DHT22;34290;48.562;13.384;2023-03-16T07:22:48;-1.00;99.90
34434;DHT22;34290;48.562;13.384;2023-03-16T07:27:42;-0.30;99.90
34434;DHT22;34290;48.562;13.384;2023-03-16T07:30:12;0.30;99.90
34434;DHT22;34290;48.562;13.384;2023-03-16T07:35:08;0.10;99.90
34434;DHT22;34290;48.562;13.384;2023-03-16T07:40:05;1.20;99.90
34434;DHT22;34290;48.562;13.384;2023-03-16T07:42:33;1.70;99.90
34434;DHT22;34290;48.562;13.384;2023-03-16T07:45:01;2.00;99.90
34434;DHT22;34290;48.562;13.384;2023-03-16T07:49:56;1.80;99.90
34434;DHT22;34290;48.562;13.384;2023-03-16T07:52:23;1.80;99.90
34434;DHT22;34290;48.562;13.384;2023-03-16T07:54:50;2.40;99.90
34434;DHT22;34290;48.562;13.384;2023-03-16T07:57:19;2.80;99.90
34434;DHT22;34290;48.562;13.384;2023-03-16T07:59:46;2.80;99.90
34434;DHT22;34290;48.562;13.384;2023-03-16T08:02:14;3.30;99.90
34434;DHT22;34290;48.562;13.384;2023-03-16T08:04:42;4.90;99.90
34434;DHT22;34290;48.562;13.384;2023-03-16T08:07:09;8.10;99.90
34434;DHT22;34290;48.562;13.384;2023-03-16T08:09:37;8.20;99.90
34434;DHT22;34290;48.562;13.384;2023-03-16T08:12:08;9.90;99.90
34434;DHT22;34290;48.562;13.384;2023-03-16T08:14:37;10.60;99.90
34434;DHT22;34290;48.562;13.384;2023-03-16T08:17:05;11.50;99.90
34434;DHT22;34290;48.562;13.384;2023-03-16T08:19:33;11.50;99.90
34434;DHT22;34290;48.562;13.384;2023-03-16T08:22:00;12.80;98.30
34434;DHT22;34290;48.562;13.384;2023-03-16T08:24:28;14.30;96.30
34434;DHT22;34290;48.562;13.384;2023-03-16T08:29:23;15.70;92.50
34434;DHT22;34290;48.562;13.384;2023-03-16T08:31:52;15.80;93.50
34434;DHT22;34290;48.562;13.384;2023-03-16T08:34:20;16.00;91.10
34434;DHT22;34290;48.562;13.384;2023-03-16T08:36:47;15.90;91.00
34434;DHT22;34290;48.562;13.384;2023-03-16T08:39:14;16.20;90.20
34434;DHT22;34290;48.562;13.384;2023-03-16T08:41:41;16.10;88.10
34434;DHT22;34290;48.562;13.384;2023-03-16T08:44:10;16.00;89.50
34434;DHT22;34290;48.562;13.384;2023-03-16T08:46:37;15.50;87.10
34434;DHT22;34290;48.562;13.384;2023-03-16T08:49:06;15.00;89.90
34434;DHT22;34290;48.562;13.384;2023-03-16T08:51:33;14.90;90.20
34434;DHT22;34290;48.562;13.384;2023-03-16T08:56:27;14.90;90.90
34434;DHT22;34290;48.562;13.384;2023-03-16T08:58:55;15.80;87.00
34434;DHT22;34290;48.562;13.384;2023-03-16T09:01:22;15.60;88.20
34434;DHT22;34290;48.562;13.384;2023-03-16T09:03:50;16.10;87.00
34434;DHT22;34290;48.562;13.384;2023-03-16T09:06:18;17.00;86.90
34434;DHT22;34290;48.562;13.384;2023-03-16T09:08:46;15.80;82.40
34434;DHT22;34290;48.562;13.384;2023-03-16T09:11:16;16.00;83.00
34434;DHT22;34290;48.562;13.384;2023-03-16T09:13:44;13.90;82.20
34434;DHT22;34290;48.562;13.384;2023-03-16T09:21:09;10.00;90.90
34434;DHT22;34290;48.562;13.384;2023-03-16T09:23:40;11.10;90.10
34434;DHT22;34290;48.562;13.384;2023-03-16T09:26:08;11.80;87.40
34434;DHT22;34290;48.562;13.384;2023-03-16T09:28:36;10.20;89.20
34434;DHT22;34290;48.562;13.384;2023-03-16T09:36:00;9.80;91.80
34434;DHT22;34290;48.562;13.384;2023-03-16T09:38:28;10.60;91.30
34434;DHT22;34290;48.562;13.384;2023-03-16T09:41:01;11.80;88.20
34434;DHT22;34290;48.562;13.384;2023-03-16T09:43:49;11.60;87.30
34434;DHT22;34290;48.562;13.384;2023-03-16T09:46:24;10.50;88.80
34434;DHT22;34290;48.562;13.384;2023-03-16T09:48:57;10.40;88.90
34434;DHT22;34290;48.562;13.384;2023-03-16T09:51:35;9.40;89.80
34434;DHT22;34290;48.562;13.384;2023-03-16T09:54:07;9.20;90.40
34434;DHT22;34290;48.562;13.384;2023-03-16T09:56:58;9.30;90.30
34434;DHT22;34290;48.562;13.384;2023-03-16T09:59:44;10.70;88.40
34434;DHT22;34290;48.562;13.384;2023-03-16T10:08:02;11.70;89.30
34434;DHT22;34290;48.562;13.384;2023-03-16T10:11:02;11.60;84.30
34434;DHT22;34290;48.562;13.384;2023-03-16T10:13:38;10.30;86.40
34434;DHT22;34290;48.562;13.384;2023-03-16T10:16:09;9.10;86.80
34434;DHT22;34290;48.562;13.384;2023-03-16T10:18:42;8.80;86.40
34434;DHT22;34290;48.562;13.384;2023-03-16T10:21:13;8.50;86.70
34434;DHT22;34290;48.562;13.384;2023-03-16T10:23:42;8.10;87.40
34434;DHT22;34290;48.562;13.384;2023-03-16T10:26:12;8.80;90.40
34434;DHT22;34290;48.562;13.384;2023-03-16T10:28:41;8.80;88.50
34434;DHT22;34290;48.562;13.384;2023-03-16T10:33:38;9.50;87.20
34434;DHT22;34290;48.562;13.384;2023-03-16T10:36:13;10.10;84.80
34434;DHT22;34290;48.562;13.384;2023-03-16T10:38:44;10.40;85.60
34434;DHT22;34290;48.562;13.384;2023-03-16T10:41:20;8.70;86.60
34434;DHT22;34290;48.562;13.384;2023-03-16T10:43:51;9.70;87.20
34434;DHT22;34290;48.562;13.384;2023-03-16T10:46:19;10.70;86.60
34434;DHT22;34290;48.562;13.384;2023-03-16T10:48:51;11.40;80.10
34434;DHT22;34290;48.562;13.384;2023-03-16T10:51:24;10.60;81.50
34434;DHT22;34290;48.562;13.384;2023-03-16T10:53:52;10.50;78.80
34434;DHT22;34290;48.562;13.384;2023-03-16T10:56:21;10.20;81.20
34434;DHT22;34290;48.562;13.384;2023-03-16T10:58:51;11.00;80.80
34434;DHT22;34290;48.562;13.384;2023-03-16T11:01:21;11.60;82.00
34434;DHT22;34290;48.562;13.384;2023-03-16T11:03:51;11.80;80.10
34434;DHT22;34290;48.562;13.384;2023-03-16T11:06:22;11.00;82.30
34434;DHT22;34290;48.562;13.384;2023-03-16T11:08:50;11.10;81.40
34434;DHT22;34290;48.562;13.384;2023-03-16T11:11:23;10.50;79.20
34434;DHT22;34290;48.562;13.384;2023-03-16T11:13:57;10.80;80.00
34434;DHT22;34290;48.562;13.384;2023-03-16T11:16:28;11.50;79.40
34434;DHT22;34290;48.562;13.384;2023-03-16T11:18:57;11.90;77.70
34434;DHT22;34290;48.562;13.384;2023-03-16T11:21:36;11.50;77.60
34434;DHT22;34290;48.562;13.384;2023-03-16T11:24:09;10.80;77.90
34434;DHT22;34290;48.562;13.384;2023-03-16T11:26:40;10.50;75.20
34434;DHT22;34290;48.562;13.384;2023-03-16T11:29:15;10.30;75.50
34434;DHT22;34290;48.562;13.384;2023-03-16T11:31:47;10.50;73.70
34434;DHT22;34290;48.562;13.384;2023-03-16T11:34:20;10.30;75.00
34434;DHT22;34290;48.562;13.384;2023-03-16T11:36:52;10.40;75.80
34434;DHT22;34290;48.562;13.384;2023-03-16T11:39:30;10.70;76.70
34434;DHT22;34290;48.562;13.384;2023-03-16T11:42:19;10.90;74.90
34434;DHT22;34290;48.562;13.384;2023-03-16T11:44:54;10.40;72.30
34434;DHT22;34290;48.562;13.384;2023-03-16T11:47:52;9.90;75.60
34434;DHT22;34290;48.562;13.384;2023-03-16T11:52:57;10.00;76.30
34434;DHT22;34290;48.562;13.384;2023-03-16T11:58:06;10.10;77.00
34434;DHT22;34290;48.562;13.384;2023-03-16T12:03:34;11.60;78.50
34434;DHT22;34290;48.562;13.384;2023-03-16T12:08:58;10.10;72.50
34434;DHT22;34290;48.562;13.384;2023-03-16T12:16:39;10.10;75.40
34434;DHT22;34290;48.562;13.384;2023-03-16T12:19:14;9.60;73.10
34434;DHT22;34290;48.562;13.384;2023-03-16T12:24:16;9.40;72.50
34434;DHT22;34290;48.562;13.384;2023-03-16T12:29:22;8.90;75.30
34434;DHT22;34290;48.562;13.384;2023-03-16T12:31:56;9.30;77.10
34434;DHT22;34290;48.562;13.384;2023-03-16T12:34:27;9.40;77.30
34434;DHT22;34290;48.562;13.384;2023-03-16T12:37:14;9.80;72.50
34434;DHT22;34290;48.562;13.384;2023-03-16T12:45:19;9.30;71.50
34434;DHT22;34290;48.562;13.384;2023-03-16T12:47:58;9.10;71.40
34434;DHT22;34290;48.562;13.384;2023-03-16T12:50:28;9.00;72.00
34434;DHT22;34290;48.562;13.384;2023-03-16T12:55:25;8.90;70.80
34434;DHT22;34290;48.562;13.384;2023-03-16T12:57:59;8.90;70.60
34434;DHT22;34290;48.562;13.384;2023-03-16T13:05:31;8.80;73.10
34434;DHT22;34290;48.562;13.384;2023-03-16T13:08:07;8.90;73.30
34434;DHT22;34290;48.562;13.384;2023-03-16T13:10:36;8.90;74.10
34434;DHT22;34290;48.562;13.384;2023-03-16T13:13:08;9.10;73.60
34434;DHT22;34290;48.562;13.384;2023-03-16T13:20:52;9.00;71.70
34434;DHT22;34290;48.562;13.384;2023-03-16T13:23:22;8.60;71.90
34434;DHT22;34290;48.562;13.384;2023-03-16T13:26:09;8.60;72.50
34434;DHT22;34290;48.562;13.384;2023-03-16T13:28:38;8.30;75.10
34434;DHT22;34290;48.562;13.384;2023-03-16T13:33:46;8.50;70.80
34434;DHT22;34290;48.562;13.384;2023-03-16T13:36:14;8.60;70.70
34434;DHT22;34290;48.562;13.384;2023-03-16T13:38:42;8.50;71.70
34434;DHT22;34290;48.562;13.384;2023-03-16T13:41:10;8.70;72.00
34434;DHT22;34290;48.562;13.384;2023-03-16T13:48:43;8.30;74.10
34434;DHT22;34290;48.562;13.384;2023-03-16T13:51:19;8.20;71.70
34434;DHT22;34290;48.562;13.384;2023-03-16T13:53:47;8.10;73.00
34434;DHT22;34290;48.562;13.384;2023-03-16T14:01:18;8.40;72.80
34434;DHT22;34290;48.562;13.384;2023-03-16T14:13:49;8.20;74.00
34434;DHT22;34290;48.562;13.384;2023-03-16T14:23:44;8.00;73.70
34434;DHT22;34290;48.562;13.384;2023-03-16T14:31:10;8.00;73.70
34434;DHT22;34290;48.562;13.384;2023-03-16T14:33:40;8.00;73.40
34434;DHT22;34290;48.562;13.384;2023-03-16T14:36:11;7.90;73.50
34434;DHT22;34290;48.562;13.384;2023-03-16T14:41:17;8.00;75.30
34434;DHT22;34290;48.562;13.384;2023-03-16T14:43:46;8.00;74.70
34434;DHT22;34290;48.562;13.384;2023-03-16T14:53:41;7.40;73.20
34434;DHT22;34290;48.562;13.384;2023-03-16T14:56:11;7.90;71.70
34434;DHT22;34290;48.562;13.384;2023-03-16T14:58:39;7.80;71.30
34434;DHT22;34290;48.562;13.384;2023-03-16T15:03:36;7.70;70.60
34434;DHT22;34290;48.562;13.384;2023-03-16T15:08:32;7.80;67.40
34434;DHT22;34290;48.562;13.384;2023-03-16T15:11:09;7.80;68.20
34434;DHT22;34290;48.562;13.384;2023-03-16T15:18:55;7.80;69.30
34434;DHT22;34290;48.562;13.384;2023-03-16T15:21:26;7.70;68.20
34434;DHT22;34290;48.562;13.384;2023-03-16T15:23:55;7.70;69.40
34434;DHT22;34290;48.562;13.384;2023-03-16T15:26:26;7.70;68.90
34434;DHT22;34290;48.562;13.384;2023-03-16T15:31:22;7.70;70.60
34434;DHT22;34290;48.562;13.384;2023-03-16T15:43:43;7.60;69.80
34434;DHT22;34290;48.562;13.384;2023-03-16T15:46:10;7.60;71.40
34434;DHT22;34290;48.562;13.384;2023-03-16T15:48:38;7.50;71.10
34434;DHT22;34290;48.562;13.384;2023-03-16T15:51:07;7.50;70.80
34434;DHT22;34290;48.562;13.384;2023-03-16T15:53:40;7.60;70.50
34434;DHT22;34290;48.562;13.384;2023-03-16T15:56:10;7.60;71.80
34434;DHT22;34290;48.562;13.384;2023-03-16T15:58:40;7.50;72.60
34434;DHT22;34290;48.562;13.384;2023-03-16T16:01:19;7.50;73.00
34434;DHT22;34290;48.562;13.384;2023-03-16T16:06:15;7.50;72.40
34434;DHT22;34290;48.562;13.384;2023-03-16T16:13:39;7.30;71.10
34434;DHT22;34290;48.562;13.384;2023-03-16T16:16:10;7.20;71.00
34434;DHT22;34290;48.562;13.384;2023-03-16T16:26:06;7.00;70.70
34434;DHT22;34290;48.562;13.384;2023-03-16T16:28:34;6.90;70.90
34434;DHT22;34290;48.562;13.384;2023-03-16T16:38:26;6.70;71.10
34434;DHT22;34290;48.562;13.384;2023-03-16T16:43:31;6.50;71.90
34434;DHT22;34290;48.562;13.384;2023-03-16T16:45:59;6.40;72.30
34434;DHT22;34290;48.562;13.384;2023-03-16T16:53:27;6.20;72.70
34434;DHT22;34290;48.562;13.384;2023-03-16T16:58:22;6.20;72.60
34434;DHT22;34290;48.562;13.384;2023-03-16T17:08:17;6.00;73.70
34434;DHT22;34290;48.562;13.384;2023-03-16T17:10:45;5.70;73.90
34434;DHT22;34290;48.562;13.384;2023-03-16T17:13:24;5.90;74.40
34434;DHT22;34290;48.562;13.384;2023-03-16T17:18:20;5.80;75.60
34434;DHT22;34290;48.562;13.384;2023-03-16T17:20:47;5.30;77.00
34434;DHT22;34290;48.562;13.384;2023-03-16T17:25:52;5.60;77.40
34434;DHT22;34290;48.562;13.384;2023-03-16T17:28:19;5.50;78.40
34434;DHT22;34290;48.562;13.384;2023-03-16T17:33:17;5.20;79.20
34434;DHT22;34290;48.562;13.384;2023-03-16T17:35:46;5.10;81.00
34434;DHT22;34290;48.562;13.384;2023-03-16T17:40:46;4.70;85.40
34434;DHT22;34290;48.562;13.384;2023-03-16T17:43:14;4.40;90.00
34434;DHT22;34290;48.562;13.384;2023-03-16T17:45:43;4.30;91.90
34434;DHT22;34290;48.562;13.384;2023-03-16T17:48:13;3.80;90.70
34434;DHT22;34290;48.562;13.384;2023-03-16T17:53:10;4.50;89.90
34434;DHT22;34290;48.562;13.384;2023-03-16T18:00:39;3.80;92.40
34434;DHT22;34290;48.562;13.384;2023-03-16T18:15:39;3.10;94.90
34434;DHT22;34290;48.562;13.384;2023-03-16T18:23:13;2.20;97.80
34434;DHT22;34290;48.562;13.384;2023-03-16T18:28:10;2.20;95.80
34434;DHT22;34290;48.562;13.384;2023-03-16T18:30:40;2.50;94.00
34434;DHT22;34290;48.562;13.384;2023-03-16T18:33:20;2.40;97.30
34434;DHT22;34290;48.562;13.384;2023-03-16T18:35:48;2.10;98.60
34434;DHT22;34290;48.562;13.384;2023-03-16T18:40:50;1.70;99.90
34434;DHT22;34290;48.562;13.384;2023-03-16T18:43:18;1.60;99.90
34434;DHT22;34290;48.562;13.384;2023-03-16T18:48:19;1.40;99.90
34434;DHT22;34290;48.562;13.384;2023-03-16T18:50:48;1.30;99.90
34434;DHT22;34290;48.562;13.384;2023-03-16T18:58:15;1.00;99.90
34434;DHT22;34290;48.562;13.384;2023-03-16T19:00:47;1.00;99.90
34434;DHT22;34290;48.562;13.384;2023-03-16T19:10:44;0.90;99.90
34434;DHT22;34290;48.562;13.384;2023-03-16T19:15:45;0.60;99.90
34434;DHT22;34290;48.562;13.384;2023-03-16T19:18:13;0.60;99.90
34434;DHT22;34290;48.562;13.384;2023-03-16T19:20:41;0.50;99.90
34434;DHT22;34290;48.562;13.384;2023-03-16T19:28:12;0.30;99.90
34434;DHT22;34290;48.562;13.384;2023-03-16T19:30:40;0.30;99.90
34434;DHT22;34290;48.562;13.384;2023-03-16T19:33:19;0.10;99.90
34434;DHT22;34290;48.562;13.384;2023-03-16T19:35:47;-0.10;99.90
34434;DHT22;34290;48.562;13.384;2023-03-16T19:38:14;0.00;99.90
34434;DHT22;34290;48.562;13.384;2023-03-16T19:40:41;-0.20;99.90
34434;DHT22;34290;48.562;13.384;2023-03-16T19:45:40;-0.10;99.90
34434;DHT22;34290;48.562;13.384;2023-03-16T19:48:13;-0.20;99.90
34434;DHT22;34290;48.562;13.384;2023-03-16T19:50:41;-0.20;99.90
34434;DHT22;34290;48.562;13.384;2023-03-16T19:53:14;-0.30;99.90
34434;DHT22;34290;48.562;13.384;2023-03-16T19:55:42;-0.30;99.90
34434;DHT22;34290;48.562;13.384;2023-03-16T19:58:17;-0.30;99.90
34434;DHT22;34290;48.562;13.384;2023-03-16T20:03:14;-0.30;99.90
34434;DHT22;34290;48.562;13.384;2023-03-16T20:08:19;-0.40;99.90
34434;DHT22;34290;48.562;13.384;2023-03-16T20:10:47;-0.60;99.90
34434;DHT22;34290;48.562;13.384;2023-03-16T20:13:15;-0.60;99.90
34434;DHT22;34290;48.562;13.384;2023-03-16T20:18:11;-0.30;99.90
34434;DHT22;34290;48.562;13.384;2023-03-16T20:20:41;-0.40;99.90
34434;DHT22;34290;48.562;13.384;2023-03-16T20:28:17;-0.60;99.90
34434;DHT22;34290;48.562;13.384;2023-03-16T20:35:45;0.10;99.90
34434;DHT22;34290;48.562;13.384;2023-03-16T20:40:43;-0.70;99.90
34434;DHT22;34290;48.562;13.384;2023-03-16T20:43:21;-0.80;99.90
34434;DHT22;34290;48.562;13.384;2023-03-16T20:45:49;-0.80;99.90
34434;DHT22;34290;48.562;13.384;2023-03-16T20:50:46;-0.70;99.90
34434;DHT22;34290;48.562;13.384;2023-03-16T20:53:13;-0.70;99.90
34434;DHT22;34290;48.562;13.384;2023-03-16T20:55:40;-0.60;99.90
34434;DHT22;34290;48.562;13.384;2023-03-16T20:58:15;-0.90;99.90
34434;DHT22;34290;48.562;13.384;2023-03-16T21:08:10;-1.00;99.90
34434;DHT22;34290;48.562;13.384;2023-03-16T21:13:05;-1.10;99.90
34434;DHT22;34290;48.562;13.384;2023-03-16T21:15:35;-1.10;99.90
34434;DHT22;34290;48.562;13.384;2023-03-16T21:18:03;-1.10;99.90
34434;DHT22;34290;48.562;13.384;2023-03-16T21:20:33;-1.00;99.90
34434;DHT22;34290;48.562;13.384;2023-03-16T21:27:59;-1.10;99.90
34434;DHT22;34290;48.562;13.384;2023-03-16T21:35:30;-1.10;99.90
34434;DHT22;34290;48.562;13.384;2023-03-16T21:42:53;-1.20;99.90
34434;DHT22;34290;48.562;13.384;2023-03-16T21:45:20;-1.30;99.90
34434;DHT22;34290;48.562;13.384;2023-03-16T21:47:47;-1.20;99.90
34434;DHT22;34290;48.562;13.384;2023-03-16T21:50:19;-1.30;99.90
34434;DHT22;34290;48.562;13.384;2023-03-16T21:55:17;-1.40;99.90
34434;DHT22;34290;48.562;13.384;2023-03-16T21:57:45;-1.40;99.90
34434;DHT22;34290;48.562;13.384;2023-03-16T22:00:19;-1.20;99.90